< < Back
Terminal Aerodrome Forecast


Current Version              Previous Versions:   1  2  3  4  5  6  7  8  9  

Terminal Aerodrome Forecast

788
FTUS42 KGSP 210537
TAFGSP
TAF
KGSP 210537Z 2106/2206 28007KT P6SM SKC
     FM211000 27003KT P6SM FEW250
     FM211800 24010G18KT P6SM FEW050 SCT250
     FM220000 25007KT P6SM FEW250=



Latest METAR

478
SAUS70 KWBC 211300 RRD
MTRGSP
METAR KGSP 211253Z 24005KT 10SM CLR 14/07 A2992 RMK AO2 SLP128
T01390072


USA.gov is the U.S. government's official web portal to all federal, state and local government web resources and services.